sensor_id;sensor_type;location;lat;lon;timestamp;temperature;humidity
29413;DHT22;16389;50.126;8.450;2024-01-25T00:00:21;8.00;99.90
29413;DHT22;16389;50.126;8.450;2024-01-25T00:02:47;7.90;99.90
29413;DHT22;16389;50.126;8.450;2024-01-25T00:05:12;7.90;99.90
29413;DHT22;16389;50.126;8.450;2024-01-25T00:07:48;7.80;99.90
29413;DHT22;16389;50.126;8.450;2024-01-25T00:10:16;7.80;99.90
29413;DHT22;16389;50.126;8.450;2024-01-25T00:12:42;8.00;99.90
29413;DHT22;16389;50.126;8.450;2024-01-25T00:15:09;8.00;99.90
29413;DHT22;16389;50.126;8.450;2024-01-25T00:17:35;8.00;99.90
29413;DHT22;16389;50.126;8.450;2024-01-25T00:20:01;7.90;99.90
29413;DHT22;16389;50.126;8.450;2024-01-25T00:22:26;7.90;99.90
29413;DHT22;16389;50.126;8.450;2024-01-25T00:24:52;7.90;99.90
29413;DHT22;16389;50.126;8.450;2024-01-25T00:27:17;7.80;99.90
29413;DHT22;16389;50.126;8.450;2024-01-25T00:29:43;7.80;99.90
29413;DHT22;16389;50.126;8.450;2024-01-25T00:32:09;7.90;99.90
29413;DHT22;16389;50.126;8.450;2024-01-25T00:34:34;7.90;99.90
29413;DHT22;16389;50.126;8.450;2024-01-25T00:37:00;8.00;99.90
29413;DHT22;16389;50.126;8.450;2024-01-25T00:39:26;8.10;99.90
29413;DHT22;16389;50.126;8.450;2024-01-25T00:41:52;8.10;99.90
29413;DHT22;16389;50.126;8.450;2024-01-25T00:44:21;8.10;99.90
29413;DHT22;16389;50.126;8.450;2024-01-25T00:46:47;8.00;99.90
29413;DHT22;16389;50.126;8.450;2024-01-25T00:49:13;8.00;99.90
29413;DHT22;16389;50.126;8.450;2024-01-25T00:51:43;8.00;99.90
29413;DHT22;16389;50.126;8.450;2024-01-25T00:54:11;7.90;99.90
29413;DHT22;16389;50.126;8.450;2024-01-25T00:56:37;7.90;99.90
29413;DHT22;16389;50.126;8.450;2024-01-25T00:59:02;8.00;99.90
29413;DHT22;16389;50.126;8.450;2024-01-25T01:01:28;7.90;99.90
29413;DHT22;16389;50.126;8.450;2024-01-25T01:03:55;7.80;99.90
29413;DHT22;16389;50.126;8.450;2024-01-25T01:06:23;7.80;99.90
29413;DHT22;16389;50.126;8.450;2024-01-25T01:08:49;7.80;99.90
29413;DHT22;16389;50.126;8.450;2024-01-25T01:11:15;7.80;99.90
29413;DHT22;16389;50.126;8.450;2024-01-25T01:13:40;7.80;99.90
29413;DHT22;16389;50.126;8.450;2024-01-25T01:16:06;7.80;99.90
29413;DHT22;16389;50.126;8.450;2024-01-25T01:18:32;7.80;99.90
29413;DHT22;16389;50.126;8.450;2024-01-25T01:20:58;7.90;99.90
29413;DHT22;16389;50.126;8.450;2024-01-25T01:23:23;7.90;99.90
29413;DHT22;16389;50.126;8.450;2024-01-25T01:25:49;8.00;99.90
29413;DHT22;16389;50.126;8.450;2024-01-25T01:28:14;8.00;99.90
29413;DHT22;16389;50.126;8.450;2024-01-25T01:30:40;7.90;99.90
29413;DHT22;16389;50.126;8.450;2024-01-25T01:33:10;7.80;99.90
29413;DHT22;16389;50.126;8.450;2024-01-25T01:35:35;7.80;99.90
29413;DHT22;16389;50.126;8.450;2024-01-25T01:38:01;7.70;99.90
29413;DHT22;16389;50.126;8.450;2024-01-25T01:40:27;7.60;99.90
29413;DHT22;16389;50.126;8.450;2024-01-25T01:42:59;7.70;99.90
29413;DHT22;16389;50.126;8.450;2024-01-25T01:45:25;7.60;99.90
29413;DHT22;16389;50.126;8.450;2024-01-25T01:47:51;7.50;99.90
29413;DHT22;16389;50.126;8.450;2024-01-25T01:50:17;7.50;99.90
29413;DHT22;16389;50.126;8.450;2024-01-25T01:52:42;7.50;99.90
29413;DHT22;16389;50.126;8.450;2024-01-25T01:55:08;7.40;99.90
29413;DHT22;16389;50.126;8.450;2024-01-25T01:57:35;7.20;99.90
29413;DHT22;16389;50.126;8.450;2024-01-25T02:00:03;7.20;99.90
29413;DHT22;16389;50.126;8.450;2024-01-25T02:02:30;7.20;99.90
29413;DHT22;16389;50.126;8.450;2024-01-25T02:04:56;7.10;99.90
29413;DHT22;16389;50.126;8.450;2024-01-25T02:07:21;7.30;99.90
29413;DHT22;16389;50.126;8.450;2024-01-25T02:09:47;7.40;99.90
29413;DHT22;16389;50.126;8.450;2024-01-25T02:12:15;7.50;99.90
29413;DHT22;16389;50.126;8.450;2024-01-25T02:14:42;7.40;99.90
29413;DHT22;16389;50.126;8.450;2024-01-25T02:17:08;7.40;99.90
29413;DHT22;16389;50.126;8.450;2024-01-25T02:19:42;7.50;99.90
29413;DHT22;16389;50.126;8.450;2024-01-25T02:22:08;7.50;99.90
29413;DHT22;16389;50.126;8.450;2024-01-25T02:24:33;7.50;99.90
29413;DHT22;16389;50.126;8.450;2024-01-25T02:26:59;7.50;99.90
29413;DHT22;16389;50.126;8.450;2024-01-25T02:29:25;7.60;99.90
29413;DHT22;16389;50.126;8.450;2024-01-25T02:31:50;7.60;99.90
29413;DHT22;16389;50.126;8.450;2024-01-25T02:34:16;7.70;99.90
29413;DHT22;16389;50.126;8.450;2024-01-25T02:36:41;7.70;99.90
29413;DHT22;16389;50.126;8.450;2024-01-25T02:39:07;7.70;99.90
29413;DHT22;16389;50.126;8.450;2024-01-25T02:41:33;7.70;99.90
29413;DHT22;16389;50.126;8.450;2024-01-25T02:44:00;7.80;99.90
29413;DHT22;16389;50.126;8.450;2024-01-25T02:46:25;7.80;99.90
29413;DHT22;16389;50.126;8.450;2024-01-25T02:48:51;7.70;99.90
29413;DHT22;16389;50.126;8.450;2024-01-25T02:51:16;7.70;99.90
29413;DHT22;16389;50.126;8.450;2024-01-25T02:53:42;7.80;99.90
29413;DHT22;16389;50.126;8.450;2024-01-25T02:56:08;7.80;99.90
29413;DHT22;16389;50.126;8.450;2024-01-25T02:58:33;7.70;99.90
29413;DHT22;16389;50.126;8.450;2024-01-25T03:00:59;7.70;99.90
29413;DHT22;16389;50.126;8.450;2024-01-25T03:03:24;7.70;99.90
29413;DHT22;16389;50.126;8.450;2024-01-25T03:05:53;7.70;99.90
29413;DHT22;16389;50.126;8.450;2024-01-25T03:08:19;7.80;99.90
29413;DHT22;16389;50.126;8.450;2024-01-25T03:10:45;7.80;99.90
29413;DHT22;16389;50.126;8.450;2024-01-25T03:13:11;7.70;99.90
29413;DHT22;16389;50.126;8.450;2024-01-25T03:15:37;7.60;99.90
29413;DHT22;16389;50.126;8.450;2024-01-25T03:18:02;7.60;99.90
29413;DHT22;16389;50.126;8.450;2024-01-25T03:20:29;7.50;99.90
29413;DHT22;16389;50.126;8.450;2024-01-25T03:22:54;7.40;99.90
29413;DHT22;16389;50.126;8.450;2024-01-25T03:25:21;7.40;99.90
29413;DHT22;16389;50.126;8.450;2024-01-25T03:27:46;7.40;99.90
29413;DHT22;16389;50.126;8.450;2024-01-25T03:30:12;7.40;99.90
29413;DHT22;16389;50.126;8.450;2024-01-25T03:32:37;7.40;99.90
29413;DHT22;16389;50.126;8.450;2024-01-25T03:35:03;7.30;99.90
29413;DHT22;16389;50.126;8.450;2024-01-25T03:37:29;7.20;99.90
29413;DHT22;16389;50.126;8.450;2024-01-25T03:39:54;7.20;99.90
29413;DHT22;16389;50.126;8.450;2024-01-25T03:42:20;7.20;99.90
29413;DHT22;16389;50.126;8.450;2024-01-25T03:44:46;7.20;99.90
29413;DHT22;16389;50.126;8.450;2024-01-25T03:47:12;7.10;99.90
29413;DHT22;16389;50.126;8.450;2024-01-25T03:49:38;7.10;99.90
29413;DHT22;16389;50.126;8.450;2024-01-25T03:52:05;7.00;99.90
29413;DHT22;16389;50.126;8.450;2024-01-25T03:54:30;6.90;99.90
29413;DHT22;16389;50.126;8.450;2024-01-25T03:56:56;6.80;99.90
29413;DHT22;16389;50.126;8.450;2024-01-25T03:59:21;6.60;99.90
29413;DHT22;16389;50.126;8.450;2024-01-25T04:01:47;6.40;99.90
29413;DHT22;16389;50.126;8.450;2024-01-25T04:04:13;6.20;99.90
29413;DHT22;16389;50.126;8.450;2024-01-25T04:06:42;6.10;99.90
29413;DHT22;16389;50.126;8.450;2024-01-25T04:09:11;6.00;99.90
29413;DHT22;16389;50.126;8.450;2024-01-25T04:11:37;5.80;99.90
29413;DHT22;16389;50.126;8.450;2024-01-25T04:14:03;5.70;99.90
29413;DHT22;16389;50.126;8.450;2024-01-25T04:16:29;5.70;99.90
29413;DHT22;16389;50.126;8.450;2024-01-25T04:18:55;5.50;99.90
29413;DHT22;16389;50.126;8.450;2024-01-25T04:21:20;5.40;99.90
29413;DHT22;16389;50.126;8.450;2024-01-25T04:23:46;5.40;99.90
29413;DHT22;16389;50.126;8.450;2024-01-25T04:26:12;5.60;99.90
29413;DHT22;16389;50.126;8.450;2024-01-25T04:28:37;5.80;99.90
29413;DHT22;16389;50.126;8.450;2024-01-25T04:31:03;5.90;99.90
29413;DHT22;16389;50.126;8.450;2024-01-25T04:33:29;6.00;99.90
29413;DHT22;16389;50.126;8.450;2024-01-25T04:35:55;6.00;99.90
29413;DHT22;16389;50.126;8.450;2024-01-25T04:38:21;5.90;99.90
29413;DHT22;16389;50.126;8.450;2024-01-25T04:40:47;5.80;99.90
29413;DHT22;16389;50.126;8.450;2024-01-25T04:43:12;5.70;99.90
29413;DHT22;16389;50.126;8.450;2024-01-25T04:45:39;5.70;99.90
29413;DHT22;16389;50.126;8.450;2024-01-25T04:48:05;5.60;99.90
29413;DHT22;16389;50.126;8.450;2024-01-25T04:50:31;5.70;99.90
29413;DHT22;16389;50.126;8.450;2024-01-25T04:52:57;5.70;99.90
29413;DHT22;16389;50.126;8.450;2024-01-25T04:55:22;6.00;99.90
29413;DHT22;16389;50.126;8.450;2024-01-25T04:57:48;6.20;99.90
29413;DHT22;16389;50.126;8.450;2024-01-25T05:00:17;6.20;99.90
29413;DHT22;16389;50.126;8.450;2024-01-25T05:02:42;6.30;99.90
29413;DHT22;16389;50.126;8.450;2024-01-25T05:05:08;6.30;99.90
29413;DHT22;16389;50.126;8.450;2024-01-25T05:07:34;6.40;99.90
29413;DHT22;16389;50.126;8.450;2024-01-25T05:09:59;6.60;99.90
29413;DHT22;16389;50.126;8.450;2024-01-25T05:12:25;6.60;99.90
29413;DHT22;16389;50.126;8.450;2024-01-25T05:14:50;6.60;99.90
29413;DHT22;16389;50.126;8.450;2024-01-25T05:17:16;6.50;99.90
29413;DHT22;16389;50.126;8.450;2024-01-25T05:19:41;6.50;99.90
29413;DHT22;16389;50.126;8.450;2024-01-25T05:22:07;6.50;99.90
29413;DHT22;16389;50.126;8.450;2024-01-25T05:24:33;6.60;99.90
29413;DHT22;16389;50.126;8.450;2024-01-25T05:26:59;6.70;99.90
29413;DHT22;16389;50.126;8.450;2024-01-25T05:29:25;6.60;99.90
29413;DHT22;16389;50.126;8.450;2024-01-25T05:31:50;6.60;99.90
29413;DHT22;16389;50.126;8.450;2024-01-25T05:34:16;6.60;99.90
29413;DHT22;16389;50.126;8.450;2024-01-25T05:36:41;6.60;99.90
29413;DHT22;16389;50.126;8.450;2024-01-25T05:39:07;6.40;99.90
29413;DHT22;16389;50.126;8.450;2024-01-25T05:41:33;6.30;99.90
29413;DHT22;16389;50.126;8.450;2024-01-25T05:44:00;6.30;99.90
29413;DHT22;16389;50.126;8.450;2024-01-25T05:46:25;6.20;99.90
29413;DHT22;16389;50.126;8.450;2024-01-25T05:48:51;6.20;99.90
29413;DHT22;16389;50.126;8.450;2024-01-25T05:51:17;6.10;99.90
29413;DHT22;16389;50.126;8.450;2024-01-25T05:53:43;6.10;99.90
29413;DHT22;16389;50.126;8.450;2024-01-25T05:56:08;6.00;99.90
29413;DHT22;16389;50.126;8.450;2024-01-25T05:58:34;5.90;99.90
29413;DHT22;16389;50.126;8.450;2024-01-25T06:01:00;5.80;99.90
29413;DHT22;16389;50.126;8.450;2024-01-25T06:03:25;5.60;99.90
29413;DHT22;16389;50.126;8.450;2024-01-25T06:05:51;5.50;99.90
29413;DHT22;16389;50.126;8.450;2024-01-25T06:08:17;5.40;99.90
29413;DHT22;16389;50.126;8.450;2024-01-25T06:10:42;5.30;99.90
29413;DHT22;16389;50.126;8.450;2024-01-25T06:13:08;5.20;99.90
29413;DHT22;16389;50.126;8.450;2024-01-25T06:15:34;5.20;99.90
29413;DHT22;16389;50.126;8.450;2024-01-25T06:17:59;5.20;99.90
29413;DHT22;16389;50.126;8.450;2024-01-25T06:20:25;5.10;99.90
29413;DHT22;16389;50.126;8.450;2024-01-25T06:22:51;5.10;99.90
29413;DHT22;16389;50.126;8.450;2024-01-25T06:25:16;5.10;99.90
29413;DHT22;16389;50.126;8.450;2024-01-25T06:27:42;5.00;99.90
29413;DHT22;16389;50.126;8.450;2024-01-25T06:30:08;4.90;99.90
29413;DHT22;16389;50.126;8.450;2024-01-25T06:32:34;4.80;99.90
29413;DHT22;16389;50.126;8.450;2024-01-25T06:34:59;4.80;99.90
29413;DHT22;16389;50.126;8.450;2024-01-25T06:37:25;4.70;99.90
29413;DHT22;16389;50.126;8.450;2024-01-25T06:39:50;4.60;99.90
29413;DHT22;16389;50.126;8.450;2024-01-25T06:42:16;4.70;99.90
29413;DHT22;16389;50.126;8.450;2024-01-25T06:44:42;4.70;99.90
29413;DHT22;16389;50.126;8.450;2024-01-25T06:47:07;4.60;99.90
29413;DHT22;16389;50.126;8.450;2024-01-25T06:49:33;4.60;99.90
29413;DHT22;16389;50.126;8.450;2024-01-25T06:51:58;4.60;99.90
29413;DHT22;16389;50.126;8.450;2024-01-25T06:54:24;4.70;99.90
29413;DHT22;16389;50.126;8.450;2024-01-25T06:56:49;4.60;99.90
29413;DHT22;16389;50.126;8.450;2024-01-25T06:59:17;4.60;99.90
29413;DHT22;16389;50.126;8.450;2024-01-25T07:01:42;4.70;99.90
29413;DHT22;16389;50.126;8.450;2024-01-25T07:04:08;4.60;99.90
29413;DHT22;16389;50.126;8.450;2024-01-25T07:06:34;4.50;99.90
29413;DHT22;16389;50.126;8.450;2024-01-25T07:08:59;4.50;99.90
29413;DHT22;16389;50.126;8.450;2024-01-25T07:11:25;4.40;99.90
29413;DHT22;16389;50.126;8.450;2024-01-25T07:13:51;4.40;99.90
29413;DHT22;16389;50.126;8.450;2024-01-25T07:16:16;4.30;99.90
29413;DHT22;16389;50.126;8.450;2024-01-25T07:18:44;4.30;99.90
29413;DHT22;16389;50.126;8.450;2024-01-25T07:21:10;4.20;99.90
29413;DHT22;16389;50.126;8.450;2024-01-25T07:23:35;4.30;99.90
29413;DHT22;16389;50.126;8.450;2024-01-25T07:26:01;4.40;99.90
29413;DHT22;16389;50.126;8.450;2024-01-25T07:28:27;4.50;99.90
29413;DHT22;16389;50.126;8.450;2024-01-25T07:30:52;4.50;99.90
29413;DHT22;16389;50.126;8.450;2024-01-25T07:33:18;4.80;99.90
29413;DHT22;16389;50.126;8.450;2024-01-25T07:35:43;4.90;99.90
29413;DHT22;16389;50.126;8.450;2024-01-25T07:38:13;5.00;99.90
29413;DHT22;16389;50.126;8.450;2024-01-25T07:40:39;5.00;99.90
29413;DHT22;16389;50.126;8.450;2024-01-25T07:43:05;5.10;99.90
29413;DHT22;16389;50.126;8.450;2024-01-25T07:45:32;5.10;99.90
29413;DHT22;16389;50.126;8.450;2024-01-25T07:47:58;5.00;99.90
29413;DHT22;16389;50.126;8.450;2024-01-25T07:50:23;5.10;99.90
29413;DHT22;16389;50.126;8.450;2024-01-25T07:52:49;5.20;99.90
29413;DHT22;16389;50.126;8.450;2024-01-25T07:55:16;5.30;99.90
29413;DHT22;16389;50.126;8.450;2024-01-25T07:57:41;5.30;99.90
29413;DHT22;16389;50.126;8.450;2024-01-25T08:00:08;5.40;99.90
29413;DHT22;16389;50.126;8.450;2024-01-25T08:02:35;5.30;99.90
29413;DHT22;16389;50.126;8.450;2024-01-25T08:05:01;5.30;99.90
29413;DHT22;16389;50.126;8.450;2024-01-25T08:07:27;5.20;99.90
29413;DHT22;16389;50.126;8.450;2024-01-25T08:09:52;5.20;99.90
29413;DHT22;16389;50.126;8.450;2024-01-25T08:12:18;5.20;99.90
29413;DHT22;16389;50.126;8.450;2024-01-25T08:14:43;5.30;99.90
29413;DHT22;16389;50.126;8.450;2024-01-25T08:17:10;5.30;99.90
29413;DHT22;16389;50.126;8.450;2024-01-25T08:19:35;5.40;99.90
29413;DHT22;16389;50.126;8.450;2024-01-25T08:22:01;5.50;99.90
29413;DHT22;16389;50.126;8.450;2024-01-25T08:24:27;5.50;99.90
29413;DHT22;16389;50.126;8.450;2024-01-25T08:26:53;5.50;99.90
29413;DHT22;16389;50.126;8.450;2024-01-25T08:29:18;5.60;99.90
29413;DHT22;16389;50.126;8.450;2024-01-25T08:31:44;5.80;99.90
29413;DHT22;16389;50.126;8.450;2024-01-25T08:34:11;5.90;99.90
29413;DHT22;16389;50.126;8.450;2024-01-25T08:36:37;6.00;99.90
29413;DHT22;16389;50.126;8.450;2024-01-25T08:39:02;6.10;99.90
29413;DHT22;16389;50.126;8.450;2024-01-25T08:41:29;6.20;99.90
29413;DHT22;16389;50.126;8.450;2024-01-25T08:43:55;6.20;99.90
29413;DHT22;16389;50.126;8.450;2024-01-25T08:46:21;6.30;99.90
29413;DHT22;16389;50.126;8.450;2024-01-25T08:48:46;6.50;99.90
29413;DHT22;16389;50.126;8.450;2024-01-25T08:51:12;6.70;99.90
29413;DHT22;16389;50.126;8.450;2024-01-25T08:53:37;6.80;99.90
29413;DHT22;16389;50.126;8.450;2024-01-25T08:56:03;6.90;99.90
29413;DHT22;16389;50.126;8.450;2024-01-25T08:58:30;7.00;99.90
29413;DHT22;16389;50.126;8.450;2024-01-25T09:00:55;7.20;99.90
29413;DHT22;16389;50.126;8.450;2024-01-25T09:03:21;7.30;99.90
29413;DHT22;16389;50.126;8.450;2024-01-25T09:05:47;7.50;99.90
29413;DHT22;16389;50.126;8.450;2024-01-25T09:08:14;7.60;99.90
29413;DHT22;16389;50.126;8.450;2024-01-25T09:10:41;8.00;99.90
29413;DHT22;16389;50.126;8.450;2024-01-25T09:13:07;8.30;99.90
29413;DHT22;16389;50.126;8.450;2024-01-25T09:15:33;8.50;99.90
29413;DHT22;16389;50.126;8.450;2024-01-25T09:17:58;8.80;99.90
29413;DHT22;16389;50.126;8.450;2024-01-25T09:20:24;8.90;99.90
29413;DHT22;16389;50.126;8.450;2024-01-25T09:22:50;9.00;99.90
29413;DHT22;16389;50.126;8.450;2024-01-25T09:25:16;9.10;99.90
29413;DHT22;16389;50.126;8.450;2024-01-25T09:27:42;9.20;99.90
29413;DHT22;16389;50.126;8.450;2024-01-25T09:30:08;9.30;99.90
29413;DHT22;16389;50.126;8.450;2024-01-25T09:32:33;9.30;99.90
29413;DHT22;16389;50.126;8.450;2024-01-25T09:34:59;9.30;99.90
29413;DHT22;16389;50.126;8.450;2024-01-25T09:37:25;9.20;99.90
29413;DHT22;16389;50.126;8.450;2024-01-25T09:39:50;9.10;99.90
29413;DHT22;16389;50.126;8.450;2024-01-25T09:42:19;9.10;99.90
29413;DHT22;16389;50.126;8.450;2024-01-25T09:44:45;9.20;99.90
29413;DHT22;16389;50.126;8.450;2024-01-25T09:47:11;9.30;99.90
29413;DHT22;16389;50.126;8.450;2024-01-25T09:49:38;9.30;99.90
29413;DHT22;16389;50.126;8.450;2024-01-25T09:52:04;9.30;99.90
29413;DHT22;16389;50.126;8.450;2024-01-25T09:54:34;9.30;99.90
29413;DHT22;16389;50.126;8.450;2024-01-25T09:57:14;9.50;99.90
29413;DHT22;16389;50.126;8.450;2024-01-25T09:59:42;9.60;99.90
29413;DHT22;16389;50.126;8.450;2024-01-25T10:02:09;9.60;99.90
29413;DHT22;16389;50.126;8.450;2024-01-25T10:04:35;9.60;99.90
29413;DHT22;16389;50.126;8.450;2024-01-25T10:07:01;9.70;99.90
29413;DHT22;16389;50.126;8.450;2024-01-25T10:09:27;9.70;99.90
29413;DHT22;16389;50.126;8.450;2024-01-25T10:11:52;9.80;99.90
29413;DHT22;16389;50.126;8.450;2024-01-25T10:14:18;10.00;99.90
29413;DHT22;16389;50.126;8.450;2024-01-25T10:16:45;10.00;99.90
29413;DHT22;16389;50.126;8.450;2024-01-25T10:19:12;9.90;99.90
29413;DHT22;16389;50.126;8.450;2024-01-25T10:21:37;9.90;99.90
29413;DHT22;16389;50.126;8.450;2024-01-25T10:24:05;10.00;99.90
29413;DHT22;16389;50.126;8.450;2024-01-25T10:26:31;9.80;99.90
29413;DHT22;16389;50.126;8.450;2024-01-25T10:28:57;9.60;99.90
29413;DHT22;16389;50.126;8.450;2024-01-25T10:31:24;9.50;99.90
29413;DHT22;16389;50.126;8.450;2024-01-25T10:33:53;9.50;99.90
29413;DHT22;16389;50.126;8.450;2024-01-25T10:36:21;9.70;99.90
29413;DHT22;16389;50.126;8.450;2024-01-25T10:38:48;9.90;99.90
29413;DHT22;16389;50.126;8.450;2024-01-25T10:41:14;10.20;99.90
29413;DHT22;16389;50.126;8.450;2024-01-25T10:43:40;10.20;99.90
29413;DHT22;16389;50.126;8.450;2024-01-25T10:46:07;10.30;99.90
29413;DHT22;16389;50.126;8.450;2024-01-25T10:48:34;10.50;99.90
29413;DHT22;16389;50.126;8.450;2024-01-25T10:51:00;10.40;99.90
29413;DHT22;16389;50.126;8.450;2024-01-25T10:53:31;10.60;99.90
29413;DHT22;16389;50.126;8.450;2024-01-25T10:55:57;10.70;99.90
29413;DHT22;16389;50.126;8.450;2024-01-25T10:58:23;10.50;99.90
29413;DHT22;16389;50.126;8.450;2024-01-25T11:00:55;10.50;99.90
29413;DHT22;16389;50.126;8.450;2024-01-25T11:03:28;10.50;99.90
29413;DHT22;16389;50.126;8.450;2024-01-25T11:05:55;10.30;99.90
29413;DHT22;16389;50.126;8.450;2024-01-25T11:08:30;10.40;99.90
29413;DHT22;16389;50.126;8.450;2024-01-25T11:10:56;10.60;99.90
29413;DHT22;16389;50.126;8.450;2024-01-25T11:13:24;10.60;99.90
29413;DHT22;16389;50.126;8.450;2024-01-25T11:15:51;10.50;99.90
29413;DHT22;16389;50.126;8.450;2024-01-25T11:28:03;10.50;99.90
29413;DHT22;16389;50.126;8.450;2024-01-25T11:30:31;11.40;99.90
29413;DHT22;16389;50.126;8.450;2024-01-25T11:32:57;11.20;99.90
29413;DHT22;16389;50.126;8.450;2024-01-25T11:35:23;11.10;99.90
29413;DHT22;16389;50.126;8.450;2024-01-25T11:37:50;11.30;99.90
29413;DHT22;16389;50.126;8.450;2024-01-25T11:40:17;11.60;99.90
29413;DHT22;16389;50.126;8.450;2024-01-25T11:42:45;11.80;99.90
29413;DHT22;16389;50.126;8.450;2024-01-25T11:45:11;12.00;99.90
29413;DHT22;16389;50.126;8.450;2024-01-25T11:47:38;12.00;99.90
29413;DHT22;16389;50.126;8.450;2024-01-25T11:50:05;11.70;99.90
29413;DHT22;16389;50.126;8.450;2024-01-25T11:52:31;11.80;99.90
29413;DHT22;16389;50.126;8.450;2024-01-25T11:55:03;11.90;99.90
29413;DHT22;16389;50.126;8.450;2024-01-25T11:57:37;12.00;99.90
29413;DHT22;16389;50.126;8.450;2024-01-25T12:00:04;12.00;99.90
29413;DHT22;16389;50.126;8.450;2024-01-25T12:02:31;12.10;99.90
29413;DHT22;16389;50.126;8.450;2024-01-25T12:04:57;12.20;99.90
29413;DHT22;16389;50.126;8.450;2024-01-25T12:07:23;12.20;99.90
29413;DHT22;16389;50.126;8.450;2024-01-25T12:10:03;12.10;99.90
29413;DHT22;16389;50.126;8.450;2024-01-25T12:12:29;12.00;99.90
29413;DHT22;16389;50.126;8.450;2024-01-25T12:15:03;12.10;99.90
29413;DHT22;16389;50.126;8.450;2024-01-25T12:17:30;12.10;99.90
29413;DHT22;16389;50.126;8.450;2024-01-25T12:19:59;12.10;99.90
29413;DHT22;16389;50.126;8.450;2024-01-25T12:22:29;12.10;99.90
29413;DHT22;16389;50.126;8.450;2024-01-25T12:24:56;12.20;99.90
29413;DHT22;16389;50.126;8.450;2024-01-25T12:27:23;12.20;99.90
29413;DHT22;16389;50.126;8.450;2024-01-25T12:29:50;12.30;99.90
29413;DHT22;16389;50.126;8.450;2024-01-25T12:32:16;12.50;99.90
29413;DHT22;16389;50.126;8.450;2024-01-25T12:34:42;12.60;99.90
29413;DHT22;16389;50.126;8.450;2024-01-25T12:37:09;12.60;99.90
29413;DHT22;16389;50.126;8.450;2024-01-25T12:39:35;12.40;99.90
29413;DHT22;16389;50.126;8.450;2024-01-25T12:42:00;12.00;99.90
29413;DHT22;16389;50.126;8.450;2024-01-25T12:44:26;11.90;99.90
29413;DHT22;16389;50.126;8.450;2024-01-25T12:46:51;12.00;99.90
29413;DHT22;16389;50.126;8.450;2024-01-25T12:49:17;11.90;99.90
29413;DHT22;16389;50.126;8.450;2024-01-25T12:51:43;11.90;99.90
29413;DHT22;16389;50.126;8.450;2024-01-25T12:54:09;12.10;99.90
29413;DHT22;16389;50.126;8.450;2024-01-25T12:56:35;12.10;99.90
29413;DHT22;16389;50.126;8.450;2024-01-25T12:59:00;12.00;99.90
29413;DHT22;16389;50.126;8.450;2024-01-25T13:01:26;12.10;99.90
29413;DHT22;16389;50.126;8.450;2024-01-25T13:03:52;12.10;99.90
29413;DHT22;16389;50.126;8.450;2024-01-25T13:06:18;12.20;99.90
29413;DHT22;16389;50.126;8.450;2024-01-25T13:08:44;12.40;99.90
29413;DHT22;16389;50.126;8.450;2024-01-25T13:11:12;12.60;99.90
29413;DHT22;16389;50.126;8.450;2024-01-25T13:13:37;12.70;99.90
29413;DHT22;16389;50.126;8.450;2024-01-25T13:16:03;12.70;99.90
29413;DHT22;16389;50.126;8.450;2024-01-25T13:18:29;12.80;99.90
29413;DHT22;16389;50.126;8.450;2024-01-25T13:20:54;12.90;99.90
29413;DHT22;16389;50.126;8.450;2024-01-25T13:23:20;13.00;99.90
29413;DHT22;16389;50.126;8.450;2024-01-25T13:25:45;12.90;99.90
29413;DHT22;16389;50.126;8.450;2024-01-25T13:28:11;12.70;99.90
29413;DHT22;16389;50.126;8.450;2024-01-25T13:30:37;12.70;99.90
29413;DHT22;16389;50.126;8.450;2024-01-25T13:33:02;12.80;99.90
29413;DHT22;16389;50.126;8.450;2024-01-25T13:35:28;12.60;99.90
29413;DHT22;16389;50.126;8.450;2024-01-25T13:37:54;12.50;99.90
29413;DHT22;16389;50.126;8.450;2024-01-25T13:40:19;12.40;99.90
29413;DHT22;16389;50.126;8.450;2024-01-25T13:42:45;12.40;99.90
29413;DHT22;16389;50.126;8.450;2024-01-25T13:45:10;12.30;99.90
29413;DHT22;16389;50.126;8.450;2024-01-25T13:47:36;12.40;99.90
29413;DHT22;16389;50.126;8.450;2024-01-25T13:50:02;12.20;99.90
29413;DHT22;16389;50.126;8.450;2024-01-25T13:52:27;12.00;99.90
29413;DHT22;16389;50.126;8.450;2024-01-25T13:54:53;11.90;99.90
29413;DHT22;16389;50.126;8.450;2024-01-25T13:57:20;12.10;99.90
29413;DHT22;16389;50.126;8.450;2024-01-25T13:59:49;12.00;99.90
29413;DHT22;16389;50.126;8.450;2024-01-25T14:02:14;12.00;99.90
29413;DHT22;16389;50.126;8.450;2024-01-25T14:04:40;11.80;99.90
29413;DHT22;16389;50.126;8.450;2024-01-25T14:07:05;11.90;99.90
29413;DHT22;16389;50.126;8.450;2024-01-25T14:09:31;12.00;99.90
29413;DHT22;16389;50.126;8.450;2024-01-25T14:11:56;12.10;99.90
29413;DHT22;16389;50.126;8.450;2024-01-25T14:14:22;12.00;99.90
29413;DHT22;16389;50.126;8.450;2024-01-25T14:16:48;11.90;99.90
29413;DHT22;16389;50.126;8.450;2024-01-25T14:19:13;12.00;99.90
29413;DHT22;16389;50.126;8.450;2024-01-25T14:21:39;12.00;99.90
29413;DHT22;16389;50.126;8.450;2024-01-25T14:24:04;12.00;99.90
29413;DHT22;16389;50.126;8.450;2024-01-25T14:26:30;12.00;99.90
29413;DHT22;16389;50.126;8.450;2024-01-25T14:28:55;11.90;99.90
29413;DHT22;16389;50.126;8.450;2024-01-25T14:31:21;11.80;99.90
29413;DHT22;16389;50.126;8.450;2024-01-25T14:33:46;11.60;99.90
29413;DHT22;16389;50.126;8.450;2024-01-25T14:36:12;11.50;99.90
29413;DHT22;16389;50.126;8.450;2024-01-25T14:38:39;11.40;99.90
29413;DHT22;16389;50.126;8.450;2024-01-25T14:41:11;11.30;99.90
29413;DHT22;16389;50.126;8.450;2024-01-25T14:43:39;11.20;99.90
29413;DHT22;16389;50.126;8.450;2024-01-25T14:46:06;11.10;99.90
29413;DHT22;16389;50.126;8.450;2024-01-25T14:48:32;11.10;99.90
29413;DHT22;16389;50.126;8.450;2024-01-25T14:50:57;11.00;99.90
29413;DHT22;16389;50.126;8.450;2024-01-25T14:53:23;10.90;99.90
29413;DHT22;16389;50.126;8.450;2024-01-25T14:55:49;10.80;99.90
29413;DHT22;16389;50.126;8.450;2024-01-25T14:58:15;10.80;99.90
29413;DHT22;16389;50.126;8.450;2024-01-25T15:00:48;10.70;99.90
29413;DHT22;16389;50.126;8.450;2024-01-25T15:03:13;10.60;99.90
29413;DHT22;16389;50.126;8.450;2024-01-25T15:05:39;10.50;99.90
29413;DHT22;16389;50.126;8.450;2024-01-25T15:08:04;10.40;99.90
29413;DHT22;16389;50.126;8.450;2024-01-25T15:10:30;10.40;99.90
29413;DHT22;16389;50.126;8.450;2024-01-25T15:12:57;10.30;99.90
29413;DHT22;16389;50.126;8.450;2024-01-25T15:15:25;10.20;99.90
29413;DHT22;16389;50.126;8.450;2024-01-25T15:17:53;10.00;99.90
29413;DHT22;16389;50.126;8.450;2024-01-25T15:20:20;10.00;99.90
29413;DHT22;16389;50.126;8.450;2024-01-25T15:22:46;9.90;99.90
29413;DHT22;16389;50.126;8.450;2024-01-25T15:25:12;9.80;99.90
29413;DHT22;16389;50.126;8.450;2024-01-25T15:27:38;9.80;99.90
29413;DHT22;16389;50.126;8.450;2024-01-25T15:30:04;9.80;99.90
29413;DHT22;16389;50.126;8.450;2024-01-25T15:32:31;9.80;99.90
29413;DHT22;16389;50.126;8.450;2024-01-25T15:34:57;9.70;99.90
29413;DHT22;16389;50.126;8.450;2024-01-25T15:37:22;9.60;99.90
29413;DHT22;16389;50.126;8.450;2024-01-25T15:39:48;9.50;99.90
29413;DHT22;16389;50.126;8.450;2024-01-25T15:42:14;9.40;99.90
29413;DHT22;16389;50.126;8.450;2024-01-25T15:44:40;9.20;99.90